Durant, Iowa
Current Conditions -  °F | °C
As of 6:52 PM on Monday 20 Oct 2014 (Local Time) from KDVN Reporting Station
Clear Clear  
Wind Chill: 55°   Ceiling: Unl
Heat Index: 55°   Visibility: 10mi
Dew Point: 40°   Wind: 6mph
Humidity: 57%   Direction: 330°NNW
Pressure: 29.97"   Gusts: NA
Location:  41.6°N, 90.91°W
Report Text: KDVN 202352Z AUTO 33005KT 10SM CLR 13/04 A2997 RMK AO2 SLP150 T01280044 10200 20128 53012 TSNO
Loading
Personal Weather Stations






























Interactive Weather Map New forecast layout! Learn more

10-Day Weather Forecast

Advertisements
Track Severe Weather on mobile